sensor_id;sensor_type;location;lat;lon;timestamp;temperature;humidity
17154;DHT22;8692;52.164;7.558;2023-07-20T00:00:46;18.90;99.90
17154;DHT22;8692;52.164;7.558;2023-07-20T00:03:14;18.90;99.90
17154;DHT22;8692;52.164;7.558;2023-07-20T00:05:45;18.80;99.90
17154;DHT22;8692;52.164;7.558;2023-07-20T00:08:13;18.80;99.90
17154;DHT22;8692;52.164;7.558;2023-07-20T00:10:42;18.80;99.90
17154;DHT22;8692;52.164;7.558;2023-07-20T00:13:11;18.80;99.90
17154;DHT22;8692;52.164;7.558;2023-07-20T00:15:39;18.80;99.90
17154;DHT22;8692;52.164;7.558;2023-07-20T00:18:07;18.70;99.90
17154;DHT22;8692;52.164;7.558;2023-07-20T00:20:37;18.70;99.90
17154;DHT22;8692;52.164;7.558;2023-07-20T00:23:05;18.70;99.90
17154;DHT22;8692;52.164;7.558;2023-07-20T00:25:33;18.60;99.90
17154;DHT22;8692;52.164;7.558;2023-07-20T00:28:01;18.60;99.90
17154;DHT22;8692;52.164;7.558;2023-07-20T00:30:30;18.50;99.90
17154;DHT22;8692;52.164;7.558;2023-07-20T00:32:58;18.50;99.90
17154;DHT22;8692;52.164;7.558;2023-07-20T00:35:26;18.50;99.90
17154;DHT22;8692;52.164;7.558;2023-07-20T00:37:54;18.50;99.90
17154;DHT22;8692;52.164;7.558;2023-07-20T00:40:22;18.40;99.90
17154;DHT22;8692;52.164;7.558;2023-07-20T00:42:50;18.50;99.90
17154;DHT22;8692;52.164;7.558;2023-07-20T00:45:23;18.50;99.90
17154;DHT22;8692;52.164;7.558;2023-07-20T00:47:54;18.40;99.90
17154;DHT22;8692;52.164;7.558;2023-07-20T00:50:22;18.40;99.90
17154;DHT22;8692;52.164;7.558;2023-07-20T00:52:50;18.40;99.90
17154;DHT22;8692;52.164;7.558;2023-07-20T00:55:18;18.40;99.90
17154;DHT22;8692;52.164;7.558;2023-07-20T00:57:47;18.40;99.90
17154;DHT22;8692;52.164;7.558;2023-07-20T01:00:15;18.30;99.90
17154;DHT22;8692;52.164;7.558;2023-07-20T01:02:43;18.30;99.90
17154;DHT22;8692;52.164;7.558;2023-07-20T01:05:13;18.30;99.90
17154;DHT22;8692;52.164;7.558;2023-07-20T01:07:47;18.20;99.90
17154;DHT22;8692;52.164;7.558;2023-07-20T01:10:20;18.20;99.90
17154;DHT22;8692;52.164;7.558;2023-07-20T01:12:52;18.20;99.90
17154;DHT22;8692;52.164;7.558;2023-07-20T01:15:20;18.20;99.90
17154;DHT22;8692;52.164;7.558;2023-07-20T01:17:48;18.20;99.90
17154;DHT22;8692;52.164;7.558;2023-07-20T01:20:19;18.10;99.90
17154;DHT22;8692;52.164;7.558;2023-07-20T01:23:12;18.10;99.90
17154;DHT22;8692;52.164;7.558;2023-07-20T01:26:11;18.10;99.90
17154;DHT22;8692;52.164;7.558;2023-07-20T01:29:02;18.10;99.90
17154;DHT22;8692;52.164;7.558;2023-07-20T01:31:36;18.10;99.90
17154;DHT22;8692;52.164;7.558;2023-07-20T01:34:08;18.10;99.90
17154;DHT22;8692;52.164;7.558;2023-07-20T01:36:37;18.10;99.90
17154;DHT22;8692;52.164;7.558;2023-07-20T01:39:06;18.10;99.90
17154;DHT22;8692;52.164;7.558;2023-07-20T01:41:36;18.10;99.90
17154;DHT22;8692;52.164;7.558;2023-07-20T01:44:04;18.10;99.90
17154;DHT22;8692;52.164;7.558;2023-07-20T01:46:32;18.10;99.90
17154;DHT22;8692;52.164;7.558;2023-07-20T01:49:02;18.00;99.90
17154;DHT22;8692;52.164;7.558;2023-07-20T01:51:31;18.00;99.90
17154;DHT22;8692;52.164;7.558;2023-07-20T01:53:59;18.00;99.90
17154;DHT22;8692;52.164;7.558;2023-07-20T01:56:27;17.90;99.90
17154;DHT22;8692;52.164;7.558;2023-07-20T01:58:55;17.90;99.90
17154;DHT22;8692;52.164;7.558;2023-07-20T02:01:23;17.90;99.90
17154;DHT22;8692;52.164;7.558;2023-07-20T02:03:51;17.80;99.90
17154;DHT22;8692;52.164;7.558;2023-07-20T02:06:21;17.80;99.90
17154;DHT22;8692;52.164;7.558;2023-07-20T02:08:49;17.90;99.90
17154;DHT22;8692;52.164;7.558;2023-07-20T02:11:17;17.80;99.90
17154;DHT22;8692;52.164;7.558;2023-07-20T02:13:45;17.80;99.90
17154;DHT22;8692;52.164;7.558;2023-07-20T02:16:13;17.70;99.90
17154;DHT22;8692;52.164;7.558;2023-07-20T02:18:41;17.70;99.90
17154;DHT22;8692;52.164;7.558;2023-07-20T02:21:11;17.60;99.90
17154;DHT22;8692;52.164;7.558;2023-07-20T02:23:40;17.60;99.90
17154;DHT22;8692;52.164;7.558;2023-07-20T02:26:08;17.50;99.90
17154;DHT22;8692;52.164;7.558;2023-07-20T02:28:36;17.50;99.90
17154;DHT22;8692;52.164;7.558;2023-07-20T02:31:04;17.40;99.90
17154;DHT22;8692;52.164;7.558;2023-07-20T02:33:32;17.30;99.90
17154;DHT22;8692;52.164;7.558;2023-07-20T02:36:00;17.30;99.90
17154;DHT22;8692;52.164;7.558;2023-07-20T02:38:28;17.30;99.90
17154;DHT22;8692;52.164;7.558;2023-07-20T02:40:58;17.20;99.90
17154;DHT22;8692;52.164;7.558;2023-07-20T02:43:26;17.20;99.90
17154;DHT22;8692;52.164;7.558;2023-07-20T02:45:54;17.20;99.90
17154;DHT22;8692;52.164;7.558;2023-07-20T02:48:22;17.20;99.90
17154;DHT22;8692;52.164;7.558;2023-07-20T02:50:50;17.20;99.90
17154;DHT22;8692;52.164;7.558;2023-07-20T02:53:18;17.10;99.90
17154;DHT22;8692;52.164;7.558;2023-07-20T02:55:46;17.10;99.90
17154;DHT22;8692;52.164;7.558;2023-07-20T02:58:15;17.00;99.90
17154;DHT22;8692;52.164;7.558;2023-07-20T03:00:43;17.00;99.90
17154;DHT22;8692;52.164;7.558;2023-07-20T03:03:11;16.90;99.90
17154;DHT22;8692;52.164;7.558;2023-07-20T03:05:40;16.80;99.90
17154;DHT22;8692;52.164;7.558;2023-07-20T03:08:08;16.80;99.90
17154;DHT22;8692;52.164;7.558;2023-07-20T03:10:40;16.70;99.90
17154;DHT22;8692;52.164;7.558;2023-07-20T03:13:08;16.70;99.90
17154;DHT22;8692;52.164;7.558;2023-07-20T03:15:39;16.70;99.90
17154;DHT22;8692;52.164;7.558;2023-07-20T03:18:07;16.70;99.90
17154;DHT22;8692;52.164;7.558;2023-07-20T03:20:35;16.70;99.90
17154;DHT22;8692;52.164;7.558;2023-07-20T03:23:04;16.70;99.90
17154;DHT22;8692;52.164;7.558;2023-07-20T03:25:32;16.70;99.90
17154;DHT22;8692;52.164;7.558;2023-07-20T03:28:04;16.70;99.90
17154;DHT22;8692;52.164;7.558;2023-07-20T03:30:32;16.70;99.90
17154;DHT22;8692;52.164;7.558;2023-07-20T03:33:02;16.70;99.90
17154;DHT22;8692;52.164;7.558;2023-07-20T03:35:30;16.80;99.90
17154;DHT22;8692;52.164;7.558;2023-07-20T03:37:58;16.80;99.90
17154;DHT22;8692;52.164;7.558;2023-07-20T03:40:27;16.80;99.90
17154;DHT22;8692;52.164;7.558;2023-07-20T03:42:55;16.90;99.90
17154;DHT22;8692;52.164;7.558;2023-07-20T03:45:23;16.90;99.90
17154;DHT22;8692;52.164;7.558;2023-07-20T03:47:51;16.90;99.90
17154;DHT22;8692;52.164;7.558;2023-07-20T03:50:20;16.90;99.90
17154;DHT22;8692;52.164;7.558;2023-07-20T03:52:48;17.00;99.90
17154;DHT22;8692;52.164;7.558;2023-07-20T03:55:16;17.00;99.90
17154;DHT22;8692;52.164;7.558;2023-07-20T03:57:44;17.00;99.90
17154;DHT22;8692;52.164;7.558;2023-07-20T04:00:13;17.00;99.90
17154;DHT22;8692;52.164;7.558;2023-07-20T04:02:43;17.00;99.90
17154;DHT22;8692;52.164;7.558;2023-07-20T04:05:11;17.00;99.90
17154;DHT22;8692;52.164;7.558;2023-07-20T04:07:40;17.00;99.90
17154;DHT22;8692;52.164;7.558;2023-07-20T04:10:09;17.00;99.90
17154;DHT22;8692;52.164;7.558;2023-07-20T04:12:37;17.00;99.90
17154;DHT22;8692;52.164;7.558;2023-07-20T04:15:06;17.00;99.90
17154;DHT22;8692;52.164;7.558;2023-07-20T04:17:34;17.00;99.90
17154;DHT22;8692;52.164;7.558;2023-07-20T04:20:02;17.00;99.90
17154;DHT22;8692;52.164;7.558;2023-07-20T04:22:30;16.90;99.90
17154;DHT22;8692;52.164;7.558;2023-07-20T04:25:00;16.90;99.90
17154;DHT22;8692;52.164;7.558;2023-07-20T04:27:28;16.90;99.90
17154;DHT22;8692;52.164;7.558;2023-07-20T04:29:58;16.90;99.90
17154;DHT22;8692;52.164;7.558;2023-07-20T04:32:26;16.90;99.90
17154;DHT22;8692;52.164;7.558;2023-07-20T04:34:54;16.90;99.90
17154;DHT22;8692;52.164;7.558;2023-07-20T04:37:22;17.00;99.90
17154;DHT22;8692;52.164;7.558;2023-07-20T04:39:50;17.00;99.90
17154;DHT22;8692;52.164;7.558;2023-07-20T04:42:20;16.90;99.90
17154;DHT22;8692;52.164;7.558;2023-07-20T04:44:48;17.00;99.90
17154;DHT22;8692;52.164;7.558;2023-07-20T04:47:16;17.00;99.90
17154;DHT22;8692;52.164;7.558;2023-07-20T04:49:44;17.00;99.90
17154;DHT22;8692;52.164;7.558;2023-07-20T04:52:13;17.00;99.90
17154;DHT22;8692;52.164;7.558;2023-07-20T04:54:44;17.00;99.90
17154;DHT22;8692;52.164;7.558;2023-07-20T04:57:12;17.00;99.90
17154;DHT22;8692;52.164;7.558;2023-07-20T04:59:47;17.00;99.90
17154;DHT22;8692;52.164;7.558;2023-07-20T05:02:15;16.90;99.90
17154;DHT22;8692;52.164;7.558;2023-07-20T05:04:43;16.90;99.90
17154;DHT22;8692;52.164;7.558;2023-07-20T05:07:11;16.90;99.90
17154;DHT22;8692;52.164;7.558;2023-07-20T05:09:39;16.90;99.90
17154;DHT22;8692;52.164;7.558;2023-07-20T05:12:08;16.90;99.90
17154;DHT22;8692;52.164;7.558;2023-07-20T05:14:36;16.90;99.90
17154;DHT22;8692;52.164;7.558;2023-07-20T05:17:06;17.00;99.90
17154;DHT22;8692;52.164;7.558;2023-07-20T05:19:34;17.00;99.90
17154;DHT22;8692;52.164;7.558;2023-07-20T05:22:02;17.00;99.90
17154;DHT22;8692;52.164;7.558;2023-07-20T05:24:32;16.90;99.90
17154;DHT22;8692;52.164;7.558;2023-07-20T05:27:00;16.90;99.90
17154;DHT22;8692;52.164;7.558;2023-07-20T05:29:28;16.90;99.90
17154;DHT22;8692;52.164;7.558;2023-07-20T05:31:56;16.90;99.90
17154;DHT22;8692;52.164;7.558;2023-07-20T05:34:25;16.90;99.90
17154;DHT22;8692;52.164;7.558;2023-07-20T05:36:53;16.90;99.90
17154;DHT22;8692;52.164;7.558;2023-07-20T05:39:21;16.80;99.90
17154;DHT22;8692;52.164;7.558;2023-07-20T05:41:49;16.90;99.90
17154;DHT22;8692;52.164;7.558;2023-07-20T05:44:17;16.90;99.90
17154;DHT22;8692;52.164;7.558;2023-07-20T05:46:45;16.90;99.90
17154;DHT22;8692;52.164;7.558;2023-07-20T05:49:25;16.90;99.90
17154;DHT22;8692;52.164;7.558;2023-07-20T05:51:54;16.90;99.90
17154;DHT22;8692;52.164;7.558;2023-07-20T05:54:22;16.90;99.90
17154;DHT22;8692;52.164;7.558;2023-07-20T05:56:51;17.00;99.90
17154;DHT22;8692;52.164;7.558;2023-07-20T05:59:19;17.10;99.90
17154;DHT22;8692;52.164;7.558;2023-07-20T06:01:47;17.10;99.90
17154;DHT22;8692;52.164;7.558;2023-07-20T06:04:16;17.10;99.90
17154;DHT22;8692;52.164;7.558;2023-07-20T06:06:45;17.20;99.90
17154;DHT22;8692;52.164;7.558;2023-07-20T06:09:14;17.20;99.90
17154;DHT22;8692;52.164;7.558;2023-07-20T06:11:42;17.30;99.90
17154;DHT22;8692;52.164;7.558;2023-07-20T06:14:10;17.30;99.90
17154;DHT22;8692;52.164;7.558;2023-07-20T06:16:39;17.30;99.90
17154;DHT22;8692;52.164;7.558;2023-07-20T06:19:07;17.40;99.90
17154;DHT22;8692;52.164;7.558;2023-07-20T06:21:37;17.40;99.90
17154;DHT22;8692;52.164;7.558;2023-07-20T06:24:08;17.40;99.90
17154;DHT22;8692;52.164;7.558;2023-07-20T06:26:36;17.40;99.90
17154;DHT22;8692;52.164;7.558;2023-07-20T06:29:05;17.40;99.90
17154;DHT22;8692;52.164;7.558;2023-07-20T06:31:34;17.40;99.90
17154;DHT22;8692;52.164;7.558;2023-07-20T06:34:02;17.40;99.90
17154;DHT22;8692;52.164;7.558;2023-07-20T06:36:31;17.40;99.90
17154;DHT22;8692;52.164;7.558;2023-07-20T06:38:59;17.30;99.90
17154;DHT22;8692;52.164;7.558;2023-07-20T06:41:31;17.30;99.90
17154;DHT22;8692;52.164;7.558;2023-07-20T06:44:02;17.20;99.90
17154;DHT22;8692;52.164;7.558;2023-07-20T06:46:30;17.20;99.90
17154;DHT22;8692;52.164;7.558;2023-07-20T06:48:58;17.10;99.90
17154;DHT22;8692;52.164;7.558;2023-07-20T06:51:29;17.10;99.90
17154;DHT22;8692;52.164;7.558;2023-07-20T06:53:57;17.10;99.90
17154;DHT22;8692;52.164;7.558;2023-07-20T06:56:25;17.20;99.90
17154;DHT22;8692;52.164;7.558;2023-07-20T06:58:56;17.10;99.90
17154;DHT22;8692;52.164;7.558;2023-07-20T07:01:24;17.10;99.90
17154;DHT22;8692;52.164;7.558;2023-07-20T07:03:53;17.10;99.90
17154;DHT22;8692;52.164;7.558;2023-07-20T07:06:22;17.20;99.90
17154;DHT22;8692;52.164;7.558;2023-07-20T07:08:52;17.30;99.90
17154;DHT22;8692;52.164;7.558;2023-07-20T07:11:20;17.30;99.90
17154;DHT22;8692;52.164;7.558;2023-07-20T07:13:49;17.40;99.90
17154;DHT22;8692;52.164;7.558;2023-07-20T07:16:19;17.40;99.90
17154;DHT22;8692;52.164;7.558;2023-07-20T07:18:49;17.60;99.90
17154;DHT22;8692;52.164;7.558;2023-07-20T07:21:18;17.60;99.90
17154;DHT22;8692;52.164;7.558;2023-07-20T07:23:46;17.70;99.90
17154;DHT22;8692;52.164;7.558;2023-07-20T07:26:14;17.60;99.90
17154;DHT22;8692;52.164;7.558;2023-07-20T07:28:43;17.70;99.90
17154;DHT22;8692;52.164;7.558;2023-07-20T07:31:11;17.70;99.90
17154;DHT22;8692;52.164;7.558;2023-07-20T07:33:40;17.70;99.90
17154;DHT22;8692;52.164;7.558;2023-07-20T07:36:08;17.80;99.90
17154;DHT22;8692;52.164;7.558;2023-07-20T07:38:36;17.80;99.90
17154;DHT22;8692;52.164;7.558;2023-07-20T07:41:24;17.90;99.90
17154;DHT22;8692;52.164;7.558;2023-07-20T07:43:52;17.80;99.90
17154;DHT22;8692;52.164;7.558;2023-07-20T07:46:20;17.80;99.90
17154;DHT22;8692;52.164;7.558;2023-07-20T07:48:50;17.80;99.90
17154;DHT22;8692;52.164;7.558;2023-07-20T07:51:19;17.80;99.90
17154;DHT22;8692;52.164;7.558;2023-07-20T07:53:47;17.80;99.90
17154;DHT22;8692;52.164;7.558;2023-07-20T07:56:16;17.90;99.90
17154;DHT22;8692;52.164;7.558;2023-07-20T07:58:49;17.80;99.90
17154;DHT22;8692;52.164;7.558;2023-07-20T08:01:18;17.90;99.90
17154;DHT22;8692;52.164;7.558;2023-07-20T08:03:46;18.00;99.90
17154;DHT22;8692;52.164;7.558;2023-07-20T08:06:16;18.10;99.90
17154;DHT22;8692;52.164;7.558;2023-07-20T08:08:44;18.10;99.90
17154;DHT22;8692;52.164;7.558;2023-07-20T08:11:12;18.10;99.90
17154;DHT22;8692;52.164;7.558;2023-07-20T08:13:41;18.20;99.90
17154;DHT22;8692;52.164;7.558;2023-07-20T08:16:09;18.30;99.90
17154;DHT22;8692;52.164;7.558;2023-07-20T08:18:38;18.30;99.90
17154;DHT22;8692;52.164;7.558;2023-07-20T08:21:06;18.40;99.90
17154;DHT22;8692;52.164;7.558;2023-07-20T08:23:35;18.40;99.90
17154;DHT22;8692;52.164;7.558;2023-07-20T08:26:04;18.50;99.90
17154;DHT22;8692;52.164;7.558;2023-07-20T08:28:32;18.50;99.90
17154;DHT22;8692;52.164;7.558;2023-07-20T08:31:00;18.60;99.90
17154;DHT22;8692;52.164;7.558;2023-07-20T08:33:29;18.70;99.90
17154;DHT22;8692;52.164;7.558;2023-07-20T08:36:00;18.70;99.90
17154;DHT22;8692;52.164;7.558;2023-07-20T08:38:30;18.80;99.90
17154;DHT22;8692;52.164;7.558;2023-07-20T08:40:59;18.80;99.90
17154;DHT22;8692;52.164;7.558;2023-07-20T08:43:28;18.80;99.90
17154;DHT22;8692;52.164;7.558;2023-07-20T08:45:58;18.80;99.90
17154;DHT22;8692;52.164;7.558;2023-07-20T08:48:27;18.80;99.90
17154;DHT22;8692;52.164;7.558;2023-07-20T08:50:56;18.90;99.90
17154;DHT22;8692;52.164;7.558;2023-07-20T08:53:28;19.00;99.90
17154;DHT22;8692;52.164;7.558;2023-07-20T08:55:59;19.00;99.90
17154;DHT22;8692;52.164;7.558;2023-07-20T08:58:27;19.20;99.90
17154;DHT22;8692;52.164;7.558;2023-07-20T09:00:56;19.30;99.90
17154;DHT22;8692;52.164;7.558;2023-07-20T09:03:26;19.40;99.90
17154;DHT22;8692;52.164;7.558;2023-07-20T09:05:54;19.40;99.90
17154;DHT22;8692;52.164;7.558;2023-07-20T09:08:22;19.50;99.90
17154;DHT22;8692;52.164;7.558;2023-07-20T09:10:50;19.50;99.90
17154;DHT22;8692;52.164;7.558;2023-07-20T09:13:19;19.50;99.90
17154;DHT22;8692;52.164;7.558;2023-07-20T09:15:47;19.60;99.90
17154;DHT22;8692;52.164;7.558;2023-07-20T09:18:23;19.60;99.90
17154;DHT22;8692;52.164;7.558;2023-07-20T09:20:52;19.70;99.90
17154;DHT22;8692;52.164;7.558;2023-07-20T09:23:20;19.80;99.90
17154;DHT22;8692;52.164;7.558;2023-07-20T09:25:58;19.90;99.90
17154;DHT22;8692;52.164;7.558;2023-07-20T09:28:27;20.00;99.90
17154;DHT22;8692;52.164;7.558;2023-07-20T09:30:55;20.00;99.90
17154;DHT22;8692;52.164;7.558;2023-07-20T09:33:25;20.10;99.90
17154;DHT22;8692;52.164;7.558;2023-07-20T09:35:54;20.10;99.90
17154;DHT22;8692;52.164;7.558;2023-07-20T09:38:49;20.30;99.90
17154;DHT22;8692;52.164;7.558;2023-07-20T09:41:21;20.40;99.90
17154;DHT22;8692;52.164;7.558;2023-07-20T09:43:54;20.50;99.90
17154;DHT22;8692;52.164;7.558;2023-07-20T09:46:22;20.60;97.90
17154;DHT22;8692;52.164;7.558;2023-07-20T09:48:53;20.70;99.90
17154;DHT22;8692;52.164;7.558;2023-07-20T09:51:24;20.70;99.90
17154;DHT22;8692;52.164;7.558;2023-07-20T09:53:53;20.70;99.90
17154;DHT22;8692;52.164;7.558;2023-07-20T09:56:22;20.70;99.90
17154;DHT22;8692;52.164;7.558;2023-07-20T09:58:51;20.80;97.70
17154;DHT22;8692;52.164;7.558;2023-07-20T10:01:21;20.80;98.30
17154;DHT22;8692;52.164;7.558;2023-07-20T10:03:54;20.90;99.90
17154;DHT22;8692;52.164;7.558;2023-07-20T10:06:24;21.10;98.60
17154;DHT22;8692;52.164;7.558;2023-07-20T10:08:53;21.20;98.10
17154;DHT22;8692;52.164;7.558;2023-07-20T10:11:26;21.30;95.50
17154;DHT22;8692;52.164;7.558;2023-07-20T10:13:55;21.40;96.00
17154;DHT22;8692;52.164;7.558;2023-07-20T10:16:29;21.60;99.90
17154;DHT22;8692;52.164;7.558;2023-07-20T10:19:03;21.70;94.60
17154;DHT22;8692;52.164;7.558;2023-07-20T10:21:54;21.70;91.80
17154;DHT22;8692;52.164;7.558;2023-07-20T10:24:25;21.90;91.60
17154;DHT22;8692;52.164;7.558;2023-07-20T10:26:55;21.90;88.80
17154;DHT22;8692;52.164;7.558;2023-07-20T10:29:23;21.90;87.20
17154;DHT22;8692;52.164;7.558;2023-07-20T10:31:57;21.90;89.60
17154;DHT22;8692;52.164;7.558;2023-07-20T10:34:25;21.90;91.50
17154;DHT22;8692;52.164;7.558;2023-07-20T10:36:53;21.90;91.80
17154;DHT22;8692;52.164;7.558;2023-07-20T10:39:25;22.00;90.30
17154;DHT22;8692;52.164;7.558;2023-07-20T10:42:01;22.20;85.50
17154;DHT22;8692;52.164;7.558;2023-07-20T10:44:30;22.20;85.30
17154;DHT22;8692;52.164;7.558;2023-07-20T10:47:08;22.40;84.30
17154;DHT22;8692;52.164;7.558;2023-07-20T10:49:58;22.50;81.80
17154;DHT22;8692;52.164;7.558;2023-07-20T10:52:36;22.50;83.40
17154;DHT22;8692;52.164;7.558;2023-07-20T10:55:10;22.60;83.10
17154;DHT22;8692;52.164;7.558;2023-07-20T10:57:39;22.70;84.10
17154;DHT22;8692;52.164;7.558;2023-07-20T11:00:09;22.80;84.80
17154;DHT22;8692;52.164;7.558;2023-07-20T11:02:48;22.90;83.30
17154;DHT22;8692;52.164;7.558;2023-07-20T11:05:35;23.10;83.60
17154;DHT22;8692;52.164;7.558;2023-07-20T11:08:10;23.20;82.20
17154;DHT22;8692;52.164;7.558;2023-07-20T11:10:39;23.30;82.30
17154;DHT22;8692;52.164;7.558;2023-07-20T11:13:25;23.40;78.80
17154;DHT22;8692;52.164;7.558;2023-07-20T11:16:04;23.50;76.70
17154;DHT22;8692;52.164;7.558;2023-07-20T11:18:37;23.60;77.80
17154;DHT22;8692;52.164;7.558;2023-07-20T11:21:09;23.60;76.10
17154;DHT22;8692;52.164;7.558;2023-07-20T11:23:38;23.50;76.20
17154;DHT22;8692;52.164;7.558;2023-07-20T11:26:06;23.50;74.20
17154;DHT22;8692;52.164;7.558;2023-07-20T11:28:35;23.50;75.40
17154;DHT22;8692;52.164;7.558;2023-07-20T11:31:03;23.40;76.30
17154;DHT22;8692;52.164;7.558;2023-07-20T11:33:31;23.40;77.20
17154;DHT22;8692;52.164;7.558;2023-07-20T11:36:01;23.50;76.80
17154;DHT22;8692;52.164;7.558;2023-07-20T11:38:49;23.50;75.20
17154;DHT22;8692;52.164;7.558;2023-07-20T11:41:17;23.50;75.00
17154;DHT22;8692;52.164;7.558;2023-07-20T11:43:45;23.60;75.20
17154;DHT22;8692;52.164;7.558;2023-07-20T11:46:13;23.60;72.00
17154;DHT22;8692;52.164;7.558;2023-07-20T11:48:42;23.70;70.00
17154;DHT22;8692;52.164;7.558;2023-07-20T11:51:15;23.80;71.40
17154;DHT22;8692;52.164;7.558;2023-07-20T11:53:44;23.80;73.60
17154;DHT22;8692;52.164;7.558;2023-07-20T11:56:13;23.90;72.70
17154;DHT22;8692;52.164;7.558;2023-07-20T11:58:44;24.00;68.30
17154;DHT22;8692;52.164;7.558;2023-07-20T12:01:13;24.00;73.30
17154;DHT22;8692;52.164;7.558;2023-07-20T12:03:42;24.10;74.00
17154;DHT22;8692;52.164;7.558;2023-07-20T12:06:10;24.20;73.20
17154;DHT22;8692;52.164;7.558;2023-07-20T12:08:41;24.30;73.00
17154;DHT22;8692;52.164;7.558;2023-07-20T12:11:10;24.30;73.00
17154;DHT22;8692;52.164;7.558;2023-07-20T12:13:39;24.40;71.90
17154;DHT22;8692;52.164;7.558;2023-07-20T12:16:11;24.40;68.80
17154;DHT22;8692;52.164;7.558;2023-07-20T12:18:41;24.40;71.10
17154;DHT22;8692;52.164;7.558;2023-07-20T12:21:10;24.40;70.20
17154;DHT22;8692;52.164;7.558;2023-07-20T12:23:40;24.40;68.20
17154;DHT22;8692;52.164;7.558;2023-07-20T12:26:10;24.50;69.30
17154;DHT22;8692;52.164;7.558;2023-07-20T12:28:41;24.50;70.50
17154;DHT22;8692;52.164;7.558;2023-07-20T12:31:09;24.50;69.20
17154;DHT22;8692;52.164;7.558;2023-07-20T12:33:40;24.40;68.30
17154;DHT22;8692;52.164;7.558;2023-07-20T12:36:09;24.40;68.30
17154;DHT22;8692;52.164;7.558;2023-07-20T12:38:37;24.50;67.80
17154;DHT22;8692;52.164;7.558;2023-07-20T12:41:06;24.40;70.70
17154;DHT22;8692;52.164;7.558;2023-07-20T12:43:34;24.00;72.80
17154;DHT22;8692;52.164;7.558;2023-07-20T12:46:02;23.70;75.10
17154;DHT22;8692;52.164;7.558;2023-07-20T12:48:30;23.40;77.40
17154;DHT22;8692;52.164;7.558;2023-07-20T12:50:58;23.20;78.30
17154;DHT22;8692;52.164;7.558;2023-07-20T12:53:26;23.00;78.90
17154;DHT22;8692;52.164;7.558;2023-07-20T12:55:54;23.00;80.20
17154;DHT22;8692;52.164;7.558;2023-07-20T12:58:24;23.00;80.50
17154;DHT22;8692;52.164;7.558;2023-07-20T13:00:52;23.00;80.30
17154;DHT22;8692;52.164;7.558;2023-07-20T13:03:20;23.00;79.40
17154;DHT22;8692;52.164;7.558;2023-07-20T13:05:51;23.00;78.40
17154;DHT22;8692;52.164;7.558;2023-07-20T13:08:22;23.00;77.50
17154;DHT22;8692;52.164;7.558;2023-07-20T13:10:52;23.00;78.80
17154;DHT22;8692;52.164;7.558;2023-07-20T13:13:20;23.00;77.90
17154;DHT22;8692;52.164;7.558;2023-07-20T13:15:50;22.80;78.10
17154;DHT22;8692;52.164;7.558;2023-07-20T13:18:18;22.80;79.70
17154;DHT22;8692;52.164;7.558;2023-07-20T13:20:46;22.90;77.90
17154;DHT22;8692;52.164;7.558;2023-07-20T13:23:14;22.80;78.90
17154;DHT22;8692;52.164;7.558;2023-07-20T13:25:42;22.80;80.60
17154;DHT22;8692;52.164;7.558;2023-07-20T13:28:10;23.00;78.20
17154;DHT22;8692;52.164;7.558;2023-07-20T13:30:38;23.00;76.60
17154;DHT22;8692;52.164;7.558;2023-07-20T13:33:08;23.10;77.50
17154;DHT22;8692;52.164;7.558;2023-07-20T13:35:43;23.10;75.10
17154;DHT22;8692;52.164;7.558;2023-07-20T13:38:14;23.00;75.20
17154;DHT22;8692;52.164;7.558;2023-07-20T13:40:43;22.70;77.00
17154;DHT22;8692;52.164;7.558;2023-07-20T13:43:11;22.70;78.00
17154;DHT22;8692;52.164;7.558;2023-07-20T13:45:39;22.70;78.80
17154;DHT22;8692;52.164;7.558;2023-07-20T13:48:09;22.80;78.30
17154;DHT22;8692;52.164;7.558;2023-07-20T13:50:37;22.80;78.60
17154;DHT22;8692;52.164;7.558;2023-07-20T13:53:25;23.00;79.10
17154;DHT22;8692;52.164;7.558;2023-07-20T13:55:57;23.10;77.80
17154;DHT22;8692;52.164;7.558;2023-07-20T13:58:28;23.40;76.20
17154;DHT22;8692;52.164;7.558;2023-07-20T14:00:57;23.50;75.70
17154;DHT22;8692;52.164;7.558;2023-07-20T14:03:27;23.60;76.70
17154;DHT22;8692;52.164;7.558;2023-07-20T14:05:55;23.90;77.30
17154;DHT22;8692;52.164;7.558;2023-07-20T14:08:26;24.10;74.90
17154;DHT22;8692;52.164;7.558;2023-07-20T14:10:56;24.20;74.20
17154;DHT22;8692;52.164;7.558;2023-07-20T14:13:27;24.30;71.50
17154;DHT22;8692;52.164;7.558;2023-07-20T14:16:11;24.30;69.80
17154;DHT22;8692;52.164;7.558;2023-07-20T14:18:41;24.10;70.30
17154;DHT22;8692;52.164;7.558;2023-07-20T14:21:09;24.00;69.50
17154;DHT22;8692;52.164;7.558;2023-07-20T14:23:37;24.00;71.30
17154;DHT22;8692;52.164;7.558;2023-07-20T14:26:05;24.00;69.50
17154;DHT22;8692;52.164;7.558;2023-07-20T14:28:36;24.00;69.90
17154;DHT22;8692;52.164;7.558;2023-07-20T14:31:05;24.00;69.60
17154;DHT22;8692;52.164;7.558;2023-07-20T14:33:33;24.10;71.20
17154;DHT22;8692;52.164;7.558;2023-07-20T14:36:03;24.20;68.90
17154;DHT22;8692;52.164;7.558;2023-07-20T14:38:33;24.20;69.70
17154;DHT22;8692;52.164;7.558;2023-07-20T14:41:02;24.40;68.80
17154;DHT22;8692;52.164;7.558;2023-07-20T14:43:33;24.50;68.30
17154;DHT22;8692;52.164;7.558;2023-07-20T14:46:01;24.70;66.70
17154;DHT22;8692;52.164;7.558;2023-07-20T14:48:29;24.90;67.40
17154;DHT22;8692;52.164;7.558;2023-07-20T14:50:57;24.90;66.40
17154;DHT22;8692;52.164;7.558;2023-07-20T14:53:30;25.00;65.90
17154;DHT22;8692;52.164;7.558;2023-07-20T14:56:01;25.10;68.40
17154;DHT22;8692;52.164;7.558;2023-07-20T14:58:29;25.20;68.90
17154;DHT22;8692;52.164;7.558;2023-07-20T15:01:01;25.40;68.40
17154;DHT22;8692;52.164;7.558;2023-07-20T15:03:29;25.50;64.50
17154;DHT22;8692;52.164;7.558;2023-07-20T15:05:58;25.70;65.80
17154;DHT22;8692;52.164;7.558;2023-07-20T15:08:26;25.90;65.60
17154;DHT22;8692;52.164;7.558;2023-07-20T15:10:56;26.00;64.00
17154;DHT22;8692;52.164;7.558;2023-07-20T15:13:24;26.10;64.90
17154;DHT22;8692;52.164;7.558;2023-07-20T15:15:52;26.30;62.80
17154;DHT22;8692;52.164;7.558;2023-07-20T15:18:20;26.30;62.40
17154;DHT22;8692;52.164;7.558;2023-07-20T15:21:07;26.20;61.90
17154;DHT22;8692;52.164;7.558;2023-07-20T15:23:35;26.00;63.70
17154;DHT22;8692;52.164;7.558;2023-07-20T15:26:05;25.90;63.80
17154;DHT22;8692;52.164;7.558;2023-07-20T15:28:33;25.90;64.20
17154;DHT22;8692;52.164;7.558;2023-07-20T15:31:03;25.90;64.20
17154;DHT22;8692;52.164;7.558;2023-07-20T15:33:31;25.90;65.00
17154;DHT22;8692;52.164;7.558;2023-07-20T15:36:00;25.80;63.70
17154;DHT22;8692;52.164;7.558;2023-07-20T15:38:28;25.70;63.30
17154;DHT22;8692;52.164;7.558;2023-07-20T15:40:56;25.50;63.40
17154;DHT22;8692;52.164;7.558;2023-07-20T15:43:29;25.50;64.80
17154;DHT22;8692;52.164;7.558;2023-07-20T15:46:04;25.40;65.10
17154;DHT22;8692;52.164;7.558;2023-07-20T15:48:39;25.40;65.20
17154;DHT22;8692;52.164;7.558;2023-07-20T15:51:09;25.40;65.10
17154;DHT22;8692;52.164;7.558;2023-07-20T15:53:37;25.50;64.20
17154;DHT22;8692;52.164;7.558;2023-07-20T15:56:04;25.60;63.20
17154;DHT22;8692;52.164;7.558;2023-07-20T15:58:34;25.70;64.00
17154;DHT22;8692;52.164;7.558;2023-07-20T16:01:02;25.60;64.40